Terminal Aerodrome Forecast
Issued by NWS Raleigh/Durham, NC

Home | Current Version | Previous Version | Text Only | Print | Product List | Glossary On
Versions: 1 2 3 4 5 6 7 8 9 10 11 12 13 14 15 16 17 18 19 20 21 22 23 24
000
FTUS42 KRAH 021137
TAFGSO
TAF
KGSO 021137Z 0212/0312 22007KT P6SM BKN110 BKN200
     FM021500 23011G18KT P6SM SCT040 BKN100
     FM030000 22008KT P6SM BKN050 BKN120=

USA.gov is the U.S. government's official web portal to all federal, state and local government web resources and services.